sensor_id;sensor_type;location;lat;lon;timestamp;pressure;altitude;pressure_sealevel;temperature;humidity
46456;BME280;64052;47.466;9.094;2022-12-01T00:00:01;95960.41;;;4.99;68.92
46456;BME280;64052;47.466;9.094;2022-12-01T00:05:05;95965.72;;;4.97;68.55
46456;BME280;64052;47.466;9.094;2022-12-01T00:10:08;95962.44;;;4.93;68.38
46456;BME280;64052;47.466;9.094;2022-12-01T00:15:10;95961.63;;;4.93;68.52
46456;BME280;64052;47.466;9.094;2022-12-01T00:20:12;95962.44;;;4.93;68.76
46456;BME280;64052;47.466;9.094;2022-12-01T00:25:16;95957.31;;;4.92;68.89
46456;BME280;64052;47.466;9.094;2022-12-01T00:30:19;95956.13;;;4.98;68.49
46456;BME280;64052;47.466;9.094;2022-12-01T00:35:21;95957.88;;;4.97;68.65
46456;BME280;64052;47.466;9.094;2022-12-01T00:40:22;95961.63;;;4.93;68.63
46456;BME280;64052;47.466;9.094;2022-12-01T00:45:24;95958.72;;;4.98;68.56
46456;BME280;64052;47.466;9.094;2022-12-01T00:50:25;95957.88;;;4.97;68.03
46456;BME280;64052;47.466;9.094;2022-12-01T00:55:27;95960.13;;;5.03;67.66
46456;BME280;64052;47.466;9.094;2022-12-01T01:00:29;95956.38;;;5.07;68.31
46456;BME280;64052;47.466;9.094;2022-12-01T01:05:34;95956.84;;;5.00;68.86
46456;BME280;64052;47.466;9.094;2022-12-01T01:10:44;95961.13;;;5.01;68.17
46456;BME280;64052;47.466;9.094;2022-12-01T01:15:56;95963.00;;;4.99;68.08
46456;BME280;64052;47.466;9.094;2022-12-01T01:21:07;95969.53;;;4.91;68.33
46456;BME280;64052;47.466;9.094;2022-12-01T01:26:19;95968.03;;;4.73;69.01
46456;BME280;64052;47.466;9.094;2022-12-01T01:31:23;95960.41;;;4.84;68.92
46456;BME280;64052;47.466;9.094;2022-12-01T01:36:25;95962.91;;;4.86;68.73
46456;BME280;64052;47.466;9.094;2022-12-01T01:41:27;95972.41;;;4.87;68.86
46456;BME280;64052;47.466;9.094;2022-12-01T01:46:33;95964.69;;;4.85;68.75
46456;BME280;64052;47.466;9.094;2022-12-01T01:51:42;95963.50;;;4.91;69.17
46456;BME280;64052;47.466;9.094;2022-12-01T01:56:47;95958.53;;;4.86;69.26
46456;BME280;64052;47.466;9.094;2022-12-01T02:01:56;95955.19;;;4.84;69.03
46456;BME280;64052;47.466;9.094;2022-12-01T02:07:00;95961.41;;;4.82;69.16
46456;BME280;64052;47.466;9.094;2022-12-01T02:28:29;95948.00;;;4.88;68.89
46456;BME280;64052;47.466;9.094;2022-12-01T02:33:40;95947.88;;;4.89;68.59
46456;BME280;64052;47.466;9.094;2022-12-01T02:38:57;95946.75;;;4.79;69.00
46456;BME280;64052;47.466;9.094;2022-12-01T02:54:46;95947.16;;;4.73;69.13
46456;BME280;64052;47.466;9.094;2022-12-01T02:59:51;95945.66;;;4.83;69.45
46456;BME280;64052;47.466;9.094;2022-12-01T03:25:41;95941.19;;;4.85;68.63
46456;BME280;64052;47.466;9.094;2022-12-01T03:30:44;95938.56;;;4.85;68.49
46456;BME280;64052;47.466;9.094;2022-12-01T03:36:02;95945.66;;;4.83;68.85
46456;BME280;64052;47.466;9.094;2022-12-01T03:41:09;95941.38;;;4.82;68.82
46456;BME280;64052;47.466;9.094;2022-12-01T03:46:30;95948.56;;;4.78;68.69
46456;BME280;64052;47.466;9.094;2022-12-01T03:57:37;95950.22;;;4.80;69.24
46456;BME280;64052;47.466;9.094;2022-12-01T04:02:42;95950.50;;;4.75;68.38
46456;BME280;64052;47.466;9.094;2022-12-01T04:07:43;95952.19;;;4.76;68.28
46456;BME280;64052;47.466;9.094;2022-12-01T04:12:45;95957.97;;;4.81;67.83
46456;BME280;64052;47.466;9.094;2022-12-01T04:17:46;95960.56;;;4.81;67.67
46456;BME280;64052;47.466;9.094;2022-12-01T04:22:48;95962.34;;;4.81;68.15
46456;BME280;64052;47.466;9.094;2022-12-01T04:27:50;95962.63;;;4.76;68.05
46456;BME280;64052;47.466;9.094;2022-12-01T04:32:51;95958.41;;;4.73;68.69
46456;BME280;64052;47.466;9.094;2022-12-01T04:37:53;95959.81;;;4.64;68.95
46456;BME280;64052;47.466;9.094;2022-12-01T04:42:54;95954.50;;;4.66;68.83
46456;BME280;64052;47.466;9.094;2022-12-01T04:47:56;95966.19;;;4.75;68.57
46456;BME280;64052;47.466;9.094;2022-12-01T04:52:57;95947.44;;;4.68;68.03
46456;BME280;64052;47.466;9.094;2022-12-01T04:57:59;95963.00;;;4.70;68.44
46456;BME280;64052;47.466;9.094;2022-12-01T05:03:00;95965.31;;;4.74;68.74
46456;BME280;64052;47.466;9.094;2022-12-01T05:08:02;95963.75;;;4.72;68.99
46456;BME280;64052;47.466;9.094;2022-12-01T05:13:04;95968.03;;;4.73;67.23
46456;BME280;64052;47.466;9.094;2022-12-01T05:18:06;95963.66;;;4.73;67.20
46456;BME280;64052;47.466;9.094;2022-12-01T05:23:07;95964.59;;;4.72;66.93
46456;BME280;64052;47.466;9.094;2022-12-01T05:28:17;95968.78;;;4.75;66.45
46456;BME280;64052;47.466;9.094;2022-12-01T05:33:23;95967.19;;;4.72;66.40
46456;BME280;64052;47.466;9.094;2022-12-01T05:38:25;95971.94;;;4.66;66.72
46456;BME280;64052;47.466;9.094;2022-12-01T05:43:27;95970.25;;;4.64;67.10
46456;BME280;64052;47.466;9.094;2022-12-01T05:48:30;95969.44;;;4.64;67.12
46456;BME280;64052;47.466;9.094;2022-12-01T05:53:31;95968.59;;;4.63;66.50
46456;BME280;64052;47.466;9.094;2022-12-01T05:58:33;95975.41;;;4.66;67.12
46456;BME280;64052;47.466;9.094;2022-12-01T06:03:34;95977.09;;;4.67;67.34
46456;BME280;64052;47.466;9.094;2022-12-01T06:08:36;95975.41;;;4.66;67.23
46456;BME280;64052;47.466;9.094;2022-12-01T06:13:37;95975.56;;;4.63;67.44
46456;BME280;64052;47.466;9.094;2022-12-01T06:18:39;95979.13;;;4.62;67.76
46456;BME280;64052;47.466;9.094;2022-12-01T06:23:40;95978.09;;;4.64;67.33
46456;BME280;64052;47.466;9.094;2022-12-01T06:28:42;95980.72;;;4.64;67.80
46456;BME280;64052;47.466;9.094;2022-12-01T06:33:43;95985.00;;;4.66;67.68
46456;BME280;64052;47.466;9.094;2022-12-01T06:38:45;95982.50;;;4.64;68.32
46456;BME280;64052;47.466;9.094;2022-12-01T06:43:46;95989.47;;;4.63;68.30
46456;BME280;64052;47.466;9.094;2022-12-01T06:48:48;95995.81;;;4.59;68.37
46456;BME280;64052;47.466;9.094;2022-12-01T06:53:53;96005.16;;;4.63;68.61
46456;BME280;64052;47.466;9.094;2022-12-01T06:58:55;96004.88;;;4.68;68.54
46456;BME280;64052;47.466;9.094;2022-12-01T07:03:56;96001.69;;;4.63;69.22
46456;BME280;64052;47.466;9.094;2022-12-01T07:08:58;96009.25;;;4.68;68.58
46456;BME280;64052;47.466;9.094;2022-12-01T07:13:59;96011.88;;;4.68;69.28
46456;BME280;64052;47.466;9.094;2022-12-01T07:19:00;96018.75;;;4.69;69.36
46456;BME280;64052;47.466;9.094;2022-12-01T07:24:02;96009.53;;;4.63;69.57
46456;BME280;64052;47.466;9.094;2022-12-01T07:29:04;96026.72;;;4.67;69.68
46456;BME280;64052;47.466;9.094;2022-12-01T07:34:05;96032.75;;;4.68;69.67
46456;BME280;64052;47.466;9.094;2022-12-01T07:39:07;96035.03;;;4.74;69.84
46456;BME280;64052;47.466;9.094;2022-12-01T07:44:09;96035.69;;;4.77;69.53
46456;BME280;64052;47.466;9.094;2022-12-01T07:49:11;96029.59;;;4.77;70.14
46456;BME280;64052;47.466;9.094;2022-12-01T07:54:12;96032.22;;;4.77;69.24
46456;BME280;64052;47.466;9.094;2022-12-01T07:59:14;96030.28;;;4.81;69.69
46456;BME280;64052;47.466;9.094;2022-12-01T08:04:15;96025.31;;;4.76;70.21
46456;BME280;64052;47.466;9.094;2022-12-01T08:09:17;96035.50;;;4.81;69.62
46456;BME280;64052;47.466;9.094;2022-12-01T08:14:18;96033.72;;;4.81;69.82
46456;BME280;64052;47.466;9.094;2022-12-01T08:19:20;96036.25;;;4.83;70.04
46456;BME280;64052;47.466;9.094;2022-12-01T08:24:21;96037.09;;;4.83;70.38
46456;BME280;64052;47.466;9.094;2022-12-01T08:35:55;96028.81;;;4.91;69.44
46456;BME280;64052;47.466;9.094;2022-12-01T08:41:06;96037.94;;;4.84;69.96
46456;BME280;64052;47.466;9.094;2022-12-01T09:11:25;96045.69;;;4.85;70.32
46456;BME280;64052;47.466;9.094;2022-12-01T09:16:27;96038.59;;;4.87;70.55
46456;BME280;64052;47.466;9.094;2022-12-01T09:21:30;96038.22;;;4.93;70.47
46456;BME280;64052;47.466;9.094;2022-12-01T09:26:32;96034.41;;;4.99;70.96
46456;BME280;64052;47.466;9.094;2022-12-01T09:31:34;96041.22;;;5.02;69.65
46456;BME280;64052;47.466;9.094;2022-12-01T09:36:36;96045.31;;;5.06;69.77
46456;BME280;64052;47.466;9.094;2022-12-01T09:41:49;96040.00;;;5.07;69.91
46456;BME280;64052;47.466;9.094;2022-12-01T09:46:56;96044.31;;;5.09;70.38
46456;BME280;64052;47.466;9.094;2022-12-01T09:51:58;96039.66;;;5.14;69.94
46456;BME280;64052;47.466;9.094;2022-12-01T09:57:00;96043.38;;;5.10;70.18
46456;BME280;64052;47.466;9.094;2022-12-01T10:02:05;96040.66;;;5.11;69.42
46456;BME280;64052;47.466;9.094;2022-12-01T10:07:20;96035.63;;;5.08;69.74
46456;BME280;64052;47.466;9.094;2022-12-01T10:12:29;96025.19;;;5.08;70.04
46456;BME280;64052;47.466;9.094;2022-12-01T10:33:42;96011.25;;;5.07;70.97
46456;BME280;64052;47.466;9.094;2022-12-01T10:38:46;95999.69;;;5.12;69.74
46456;BME280;64052;47.466;9.094;2022-12-01T10:43:50;96004.34;;;5.06;70.10
46456;BME280;64052;47.466;9.094;2022-12-01T10:48:55;95997.53;;;5.04;69.84
46456;BME280;64052;47.466;9.094;2022-12-01T10:53:58;95995.13;;;5.01;70.23
46456;BME280;64052;47.466;9.094;2022-12-01T12:49:57;95971.31;;;5.20;69.54
46456;BME280;64052;47.466;9.094;2022-12-01T13:00:15;95966.53;;;5.27;69.43
46456;BME280;64052;47.466;9.094;2022-12-01T13:05:24;95965.50;;;5.29;69.57
46456;BME280;64052;47.466;9.094;2022-12-01T13:10:36;95968.94;;;5.30;69.20
46456;BME280;64052;47.466;9.094;2022-12-01T13:15:40;95973.63;;;5.25;68.41
46456;BME280;64052;47.466;9.094;2022-12-01T13:20:42;95968.78;;;5.18;69.02
46456;BME280;64052;47.466;9.094;2022-12-01T13:25:48;95966.16;;;5.18;70.10
46456;BME280;64052;47.466;9.094;2022-12-01T13:31:06;95970.47;;;5.19;69.03
46456;BME280;64052;47.466;9.094;2022-12-01T13:36:10;95960.84;;;5.20;69.01
46456;BME280;64052;47.466;9.094;2022-12-01T13:41:34;95968.97;;;5.15;68.81
46456;BME280;64052;47.466;9.094;2022-12-01T13:57:25;95954.81;;;5.19;69.17
46456;BME280;64052;47.466;9.094;2022-12-01T14:02:29;95952.34;;;5.16;69.77
46456;BME280;64052;47.466;9.094;2022-12-01T14:07:36;95945.81;;;5.24;69.17
46456;BME280;64052;47.466;9.094;2022-12-01T14:12:38;95947.28;;;5.28;69.05
46456;BME280;64052;47.466;9.094;2022-12-01T14:17:40;95951.50;;;5.30;68.53
46456;BME280;64052;47.466;9.094;2022-12-01T14:22:45;95953.66;;;5.24;68.26
46456;BME280;64052;47.466;9.094;2022-12-01T14:27:50;95956.19;;;5.25;68.22
46456;BME280;64052;47.466;9.094;2022-12-01T14:38:32;95956.63;;;5.17;68.32
46456;BME280;64052;47.466;9.094;2022-12-01T14:43:34;95956.84;;;5.14;68.92
46456;BME280;64052;47.466;9.094;2022-12-01T14:48:42;95960.09;;;5.18;69.04
46456;BME280;64052;47.466;9.094;2022-12-01T14:53:46;95951.59;;;5.14;68.47
46456;BME280;64052;47.466;9.094;2022-12-01T14:59:00;95954.22;;;5.14;68.07
46456;BME280;64052;47.466;9.094;2022-12-01T15:04:13;95961.25;;;5.14;68.74
46456;BME280;64052;47.466;9.094;2022-12-01T15:09:17;95956.94;;;5.13;68.70
46456;BME280;64052;47.466;9.094;2022-12-01T15:14:47;95954.41;;;5.11;68.04
46456;BME280;64052;47.466;9.094;2022-12-01T15:19:49;95950.94;;;5.11;68.31
46456;BME280;64052;47.466;9.094;2022-12-01T15:24:51;95958.72;;;5.12;69.08
46456;BME280;64052;47.466;9.094;2022-12-01T15:29:54;95951.06;;;5.09;68.72
46456;BME280;64052;47.466;9.094;2022-12-01T15:34:57;95953.84;;;5.06;68.76
46456;BME280;64052;47.466;9.094;2022-12-01T15:40:04;95950.31;;;5.07;68.99
46456;BME280;64052;47.466;9.094;2022-12-01T15:45:45;95954.63;;;5.08;69.10
46456;BME280;64052;47.466;9.094;2022-12-01T16:07:44;95950.41;;;5.05;69.30
46456;BME280;64052;47.466;9.094;2022-12-01T16:13:42;95950.69;;;5.01;69.15
46456;BME280;64052;47.466;9.094;2022-12-01T16:18:51;95950.69;;;5.01;69.31
46456;BME280;64052;47.466;9.094;2022-12-01T16:23:58;95957.41;;;5.05;69.07
46456;BME280;64052;47.466;9.094;2022-12-01T16:29:00;95954.91;;;5.03;68.69
46456;BME280;64052;47.466;9.094;2022-12-01T16:34:02;95950.50;;;5.04;68.96
46456;BME280;64052;47.466;9.094;2022-12-01T16:39:24;95956.38;;;5.07;68.44
46456;BME280;64052;47.466;9.094;2022-12-01T16:44:25;95953.97;;;5.04;68.88
46456;BME280;64052;47.466;9.094;2022-12-01T16:49:29;95952.28;;;5.03;68.70
46456;BME280;64052;47.466;9.094;2022-12-01T16:54:31;95950.69;;;5.01;69.36
46456;BME280;64052;47.466;9.094;2022-12-01T16:59:32;95961.06;;;5.02;69.75
46456;BME280;64052;47.466;9.094;2022-12-01T17:04:34;95958.63;;;4.99;70.01
46456;BME280;64052;47.466;9.094;2022-12-01T17:09:36;95952.38;;;5.02;70.07
46456;BME280;64052;47.466;9.094;2022-12-01T17:14:37;95959.47;;;5.00;70.25
46456;BME280;64052;47.466;9.094;2022-12-01T17:19:40;95957.88;;;4.97;70.45
46456;BME280;64052;47.466;9.094;2022-12-01T17:24:41;95959.47;;;5.00;70.11
46456;BME280;64052;47.466;9.094;2022-12-01T17:29:43;95949.00;;;5.00;70.56
46456;BME280;64052;47.466;9.094;2022-12-01T17:34:46;95950.88;;;4.98;70.08
46456;BME280;64052;47.466;9.094;2022-12-01T17:39:49;95961.63;;;4.93;70.82
46456;BME280;64052;47.466;9.094;2022-12-01T17:44:50;95959.94;;;4.92;71.22
46456;BME280;64052;47.466;9.094;2022-12-01T17:49:52;95968.59;;;4.92;69.95
46456;BME280;64052;47.466;9.094;2022-12-01T17:54:54;95968.44;;;4.96;69.84
46456;BME280;64052;47.466;9.094;2022-12-01T17:59:56;95968.44;;;4.96;69.83
46456;BME280;64052;47.466;9.094;2022-12-01T18:04:57;95972.81;;;4.95;70.19
46456;BME280;64052;47.466;9.094;2022-12-01T18:09:59;95966.75;;;4.95;70.13
46456;BME280;64052;47.466;9.094;2022-12-01T18:15:00;95968.59;;;4.92;70.51
46456;BME280;64052;47.466;9.094;2022-12-01T18:20:02;95966.84;;;4.93;70.57
46456;BME280;64052;47.466;9.094;2022-12-01T18:25:04;95978.22;;;4.92;69.88
46456;BME280;64052;47.466;9.094;2022-12-01T18:30:06;95969.44;;;4.93;70.13
46456;BME280;64052;47.466;9.094;2022-12-01T18:35:08;95971.13;;;4.94;70.00
46456;BME280;64052;47.466;9.094;2022-12-01T18:40:10;95977.22;;;4.95;69.53
46456;BME280;64052;47.466;9.094;2022-12-01T18:45:12;95970.38;;;4.92;69.45
46456;BME280;64052;47.466;9.094;2022-12-01T18:50:20;95973.81;;;4.92;69.99
46456;BME280;64052;47.466;9.094;2022-12-01T18:55:22;95976.34;;;4.94;69.97
46456;BME280;64052;47.466;9.094;2022-12-01T19:00:23;95971.97;;;4.95;69.65
46456;BME280;64052;47.466;9.094;2022-12-01T19:05:25;95971.31;;;4.91;70.58
46456;BME280;64052;47.466;9.094;2022-12-01T19:10:27;95975.50;;;4.93;69.41
46456;BME280;64052;47.466;9.094;2022-12-01T19:15:29;95979.34;;;4.88;69.52
46456;BME280;64052;47.466;9.094;2022-12-01T19:20:31;95975.81;;;4.89;69.22
46456;BME280;64052;47.466;9.094;2022-12-01T19:25:35;95983.66;;;4.89;68.84
46456;BME280;64052;47.466;9.094;2022-12-01T19:30:37;95973.81;;;4.92;69.48
46456;BME280;64052;47.466;9.094;2022-12-01T19:35:39;95975.22;;;4.84;68.71
46456;BME280;64052;47.466;9.094;2022-12-01T19:40:41;95967.84;;;4.90;68.95
46456;BME280;64052;47.466;9.094;2022-12-01T19:45:42;95975.41;;;4.95;68.73
46456;BME280;64052;47.466;9.094;2022-12-01T19:50:44;95969.53;;;4.91;69.25
46456;BME280;64052;47.466;9.094;2022-12-01T19:55:45;95969.38;;;4.95;69.08
46456;BME280;64052;47.466;9.094;2022-12-01T20:00:46;95978.22;;;4.92;69.68
46456;BME280;64052;47.466;9.094;2022-12-01T20:05:48;95977.56;;;4.88;69.90
46456;BME280;64052;47.466;9.094;2022-12-01T20:10:49;95982.97;;;4.85;69.65
46456;BME280;64052;47.466;9.094;2022-12-01T20:15:51;95979.25;;;4.89;69.62
46456;BME280;64052;47.466;9.094;2022-12-01T20:21:08;95978.41;;;4.89;69.87
46456;BME280;64052;47.466;9.094;2022-12-01T20:26:10;95979.34;;;4.88;69.37
46456;BME280;64052;47.466;9.094;2022-12-01T20:31:15;95978.31;;;4.90;69.66
46456;BME280;64052;47.466;9.094;2022-12-01T20:36:17;95978.88;;;4.96;69.73
46456;BME280;64052;47.466;9.094;2022-12-01T20:41:19;95976.09;;;4.99;68.87
46456;BME280;64052;47.466;9.094;2022-12-01T20:46:21;95975.63;;;4.92;69.51
46456;BME280;64052;47.466;9.094;2022-12-01T20:51:23;95974.88;;;4.90;69.65
46456;BME280;64052;47.466;9.094;2022-12-01T20:56:24;95967.59;;;4.95;69.93
46456;BME280;64052;47.466;9.094;2022-12-01T21:01:26;95977.28;;;4.93;70.20
46456;BME280;64052;47.466;9.094;2022-12-01T21:06:27;95968.72;;;4.91;70.12
46456;BME280;64052;47.466;9.094;2022-12-01T21:11:42;95973.94;;;4.91;69.89
46456;BME280;64052;47.466;9.094;2022-12-01T21:16:46;95969.25;;;4.82;70.46
46456;BME280;64052;47.466;9.094;2022-12-01T21:21:48;95968.41;;;4.81;70.62
46456;BME280;64052;47.466;9.094;2022-12-01T21:26:58;95964.78;;;4.84;70.30
46456;BME280;64052;47.466;9.094;2022-12-01T21:32:11;95966.66;;;4.82;70.35
46456;BME280;64052;47.466;9.094;2022-12-01T21:37:20;95962.44;;;4.79;70.29
46456;BME280;64052;47.466;9.094;2022-12-01T21:42:25;95955.72;;;4.75;70.26
46456;BME280;64052;47.466;9.094;2022-12-01T21:47:29;95963.56;;;4.75;70.11
46456;BME280;64052;47.466;9.094;2022-12-01T21:52:38;95962.44;;;4.79;70.26
46456;BME280;64052;47.466;9.094;2022-12-01T21:57:51;95957.41;;;4.90;69.24
46456;BME280;64052;47.466;9.094;2022-12-01T22:03:04;95959.19;;;4.90;69.41
46456;BME280;64052;47.466;9.094;2022-12-01T22:13:14;95954.78;;;4.76;68.92
46456;BME280;64052;47.466;9.094;2022-12-01T22:18:25;95950.03;;;4.68;70.17
46456;BME280;64052;47.466;9.094;2022-12-01T22:23:31;95952.25;;;4.60;70.00
46456;BME280;64052;47.466;9.094;2022-12-01T22:28:33;95945.53;;;4.56;71.16
46456;BME280;64052;47.466;9.094;2022-12-01T22:33:35;95949.56;;;4.61;71.24
46456;BME280;64052;47.466;9.094;2022-12-01T22:38:37;95951.31;;;4.61;70.92
46456;BME280;64052;47.466;9.094;2022-12-01T22:43:49;95937.34;;;4.62;71.46
46456;BME280;64052;47.466;9.094;2022-12-01T22:49:14;95934.63;;;4.63;71.89
46456;BME280;64052;47.466;9.094;2022-12-01T22:59:20;95929.97;;;4.69;72.01
46456;BME280;64052;47.466;9.094;2022-12-01T23:04:32;95937.81;;;4.69;71.99
46456;BME280;64052;47.466;9.094;2022-12-01T23:09:40;95936.31;;;4.64;71.79
46456;BME280;64052;47.466;9.094;2022-12-01T23:14:44;95924.38;;;4.60;72.16
46456;BME280;64052;47.466;9.094;2022-12-01T23:19:48;95923.53;;;4.60;72.90
46456;BME280;64052;47.466;9.094;2022-12-01T23:24:50;95927.00;;;4.60;72.55
46456;BME280;64052;47.466;9.094;2022-12-01T23:29:52;95925.78;;;4.66;72.79
46456;BME280;64052;47.466;9.094;2022-12-01T23:34:55;95923.84;;;4.70;72.47
46456;BME280;64052;47.466;9.094;2022-12-01T23:40:11;95918.03;;;4.64;72.63
46456;BME280;64052;47.466;9.094;2022-12-01T23:45:33;95895.84;;;4.57;73.16
46456;BME280;64052;47.466;9.094;2022-12-01T23:50:34;95902.16;;;4.53;73.04
46456;BME280;64052;47.466;9.094;2022-12-01T23:55:36;95890.25;;;4.49;73.48
